Impacts TAF Board INFO
FOR SITUATIONAL AWARENESS. NOT TO BE USED FOR FLIGHT PLANNING PURPOSES.
IDs:

KSLC - Salt Lake City Intl, UT, US

Issued at 2333 UTC 15 Aug 2018
Updated at 0307 UTC 16 Aug 2018
Potential Impact None Slight Moderate High
Time0254Z 16/04Z 16/05Z 16/06Z 16/07Z 16/08Z 16/09Z 16/10Z 16/11Z 16/12Z 16/13Z 16/14Z 16/15Z 16/16Z>>
Type OBS PRVL PRVL PRVL PRVL PRVL PRVL PRVL PRVL PRVL PRVL PRVL PRVL PRVL
VIS 10 >6 >6 >6 >6 >6 >6 >6 >6 >6 >6 >6 >6 >6
CIG 190 -- -- -- -- -- -- -- -- -- -- -- -- --
Cover BKN SCT SCT SCT SCT SCT SCT SCT SCT SCT SCT SCT SCT SCT
FltCat VFR VFR VFR VFR VFR VFR VFR VFR VFR VFR VFR VFR VFR VFR
WX -- -- -- -- -- -- -- -- -- -- -- -- -- --
WDir 350 160 160 160 160 160 160 160 160 160 160 160 160 160
WSpd 6 9 9 9 9 9 9 9 9 9 9 9 9 9
WGst -- -- -- -- -- -- -- -- -- -- -- -- -- --

Raw TAF
KSLC 152333Z 1600/1706 33006KT P6SM VCSH SCT090 SCT180
  FM160300 16009KT P6SM SCT120 SCT180
  FM162000 33008KT P6SM SCT120 SCT200
  FM170300 15006KT P6SM FEW120


Raw METAR
KSLC 160254Z 35006KT 10SM FEW090 SCT150 BKN190 BKN230 28/10 A3000 RMK AO2 SLP100 VIRGA T02830100 53007
KSLC 160154Z 35007KT 10SM FEW090 SCT150 BKN190 BKN230 31/07 A2998 RMK AO2 SLP093 VIRGA T03060067
KSLC 160054Z 30009KT 10SM FEW090 BKN160 BKN230 32/06 A2998 RMK AO2 SLP090 VIRGA T03170056

METAR Board
Radar Display
Forecast Discussion

FOR SITUATIONAL AWARENESS. NOT TO BE USED FOR FLIGHT PLANNING PURPOSES.